createdAt,value
2019-01-09T00:00:08.401Z,596.20
2019-01-09T00:02:12.574Z,581.83
2019-01-09T00:04:16.899Z,559.03
2019-01-09T00:06:20.967Z,540.53
2019-01-09T00:08:25.299Z,526.13
2019-01-09T00:10:29.430Z,518.70
2019-01-09T00:12:33.602Z,522.67
2019-01-09T00:14:37.772Z,558.03
2019-01-09T00:16:42.017Z,644.33
2019-01-09T00:18:48.737Z,700.93
2019-01-09T00:20:54.557Z,669.40
2019-01-09T00:23:02.297Z,655.37
2019-01-09T00:25:06.755Z,654.73
2019-01-09T00:27:11.014Z,634.33
2019-01-09T00:29:15.143Z,1197.90
2019-01-09T00:31:19.316Z,653.03
2019-01-09T00:33:23.967Z,601.73
2019-01-09T00:35:32.786Z,527.07
2019-01-09T00:37:34.011Z,423.70
2019-01-09T00:39:38.156Z,414.73
2019-01-09T00:41:42.263Z,446.50
2019-01-09T00:43:46.509Z,454.07
2019-01-09T00:45:53.882Z,453.30
2019-01-09T00:48:00.520Z,447.23
2019-01-09T00:50:05.455Z,443.70
2019-01-09T00:52:10.156Z,441.00
2019-01-09T00:54:14.532Z,427.77
2019-01-09T00:56:18.590Z,414.37
2019-01-09T00:58:22.807Z,407.87
2019-01-09T01:00:26.895Z,387.37
2019-01-09T01:03:09.922Z,390.47
2019-01-09T01:05:46.289Z,382.37
2019-01-09T01:08:28.740Z,379.17
2019-01-09T01:11:04.477Z,373.47
2019-01-09T01:13:41.390Z,356.27
2019-01-09T01:16:37.280Z,351.83
2019-01-09T01:19:06.487Z,342.20
2019-01-09T01:21:39.380Z,332.30
2019-01-09T01:24:21.866Z,322.27
2019-01-09T01:27:04.226Z,309.30
2019-01-09T01:29:59.074Z,305.17
2019-01-09T01:32:53.369Z,309.00
2019-01-09T01:35:54.675Z,304.10
2019-01-09T01:38:23.967Z,289.00
2019-01-09T01:40:45.593Z,280.50
2019-01-09T01:43:31.711Z,274.07
2019-01-09T01:46:09.719Z,267.00
2019-01-09T01:49:00.632Z,268.90
2019-01-09T01:51:37.847Z,245.70
2019-01-09T01:54:23.220Z,253.37
2019-01-09T01:56:55.247Z,235.77
2019-01-09T01:59:36.634Z,226.57
2019-01-09T02:02:28.289Z,220.67
2019-01-09T02:05:07.730Z,219.57
2019-01-09T02:07:26.868Z,222.67
2019-01-09T02:10:08.044Z,213.13
2019-01-09T02:12:22.035Z,199.70
2019-01-09T02:15:18.033Z,198.73
2019-01-09T02:18:16.184Z,191.07
2019-01-09T02:20:49.754Z,189.27
2019-01-09T02:23:29.146Z,182.73
2019-01-09T02:25:54.940Z,179.73
2019-01-09T02:28:42.652Z,178.47
2019-01-09T02:31:56.945Z,166.53
2019-01-09T02:34:01.031Z,169.47
2019-01-09T02:36:13.389Z,166.70
2019-01-09T02:38:11.307Z,151.80
2019-01-09T02:40:15.402Z,156.87
2019-01-09T02:42:19.585Z,152.90
2019-01-09T02:44:32.086Z,152.13
2019-01-09T02:46:29.881Z,151.13
2019-01-09T02:48:33.984Z,144.53
2019-01-09T02:50:38.534Z,145.97
2019-01-09T02:52:45.198Z,137.47
2019-01-09T02:54:56.193Z,135.50
2019-01-09T02:57:00.139Z,136.40
2019-01-09T02:59:04.282Z,134.90
2019-01-09T03:01:08.680Z,128.93
2019-01-09T03:03:12.757Z,125.87
2019-01-09T03:05:16.787Z,123.57
2019-01-09T03:07:21.271Z,114.90
2019-01-09T03:09:25.844Z,113.83
2019-01-09T03:11:29.955Z,114.83
2019-01-09T03:13:34.061Z,112.03
2019-01-09T03:15:38.205Z,113.87
2019-01-09T03:17:42.567Z,106.00
2019-01-09T03:19:49.345Z,105.70
2019-01-09T03:21:54.675Z,104.47
2019-01-09T03:24:00.458Z,104.93
2019-01-09T03:26:05.514Z,101.93
2019-01-09T03:28:09.572Z,97.90
2019-01-09T03:30:13.646Z,91.07
2019-01-09T03:32:17.781Z,92.67
2019-01-09T03:34:21.826Z,92.30
2019-01-09T03:36:32.650Z,93.53
2019-01-09T03:38:31.730Z,91.10
2019-01-09T03:40:35.834Z,81.20
2019-01-09T03:42:39.810Z,82.83
2019-01-09T03:44:44.313Z,81.10
2019-01-09T03:46:49.309Z,85.97
2019-01-09T03:48:59.800Z,75.83
2019-01-09T03:51:10.548Z,79.30
2019-01-09T03:53:14.626Z,76.00
2019-01-09T03:55:18.822Z,75.13
2019-01-09T03:57:23.376Z,75.43
2019-01-09T03:59:28.296Z,71.40
2019-01-09T04:01:32.676Z,69.60
2019-01-09T04:03:37.662Z,69.60
2019-01-09T04:05:41.976Z,67.43
2019-01-09T04:07:46.583Z,64.17
2019-01-09T04:09:50.834Z,68.93
2019-01-09T04:11:56.339Z,62.60
2019-01-09T04:14:03.325Z,64.63
2019-01-09T04:16:08.019Z,61.57
2019-01-09T04:18:12.118Z,59.37
2019-01-09T04:20:16.217Z,60.63
2019-01-09T04:22:20.466Z,55.77
2019-01-09T04:24:25.254Z,57.00
2019-01-09T04:26:33.379Z,55.47
2019-01-09T04:28:39.688Z,54.43
2019-01-09T04:30:49.593Z,54.43
2019-01-09T04:32:53.679Z,50.63
2019-01-09T04:34:57.908Z,49.73
2019-01-09T04:37:02.314Z,47.80
2019-01-09T04:39:07.385Z,52.40
2019-01-09T04:41:11.580Z,47.37
2019-01-09T04:43:16.075Z,49.07
2019-01-09T04:45:20.214Z,47.53
2019-01-09T04:47:24.461Z,45.10
2019-01-09T04:49:30.092Z,45.30
2019-01-09T04:51:37.502Z,46.50
2019-01-09T04:53:47.604Z,42.97
2019-01-09T04:55:52.127Z,44.60
2019-01-09T04:57:56.351Z,40.23
2019-01-09T05:00:00.676Z,40.10
2019-01-09T05:02:04.837Z,45.40
2019-01-09T05:04:08.910Z,36.70
2019-01-09T05:06:18.839Z,39.53
2019-01-09T05:08:18.939Z,38.03
2019-01-09T05:10:24.709Z,36.00
2019-01-09T05:12:28.919Z,34.77
2019-01-09T05:14:34.780Z,34.20
2019-01-09T05:16:44.425Z,34.90
2019-01-09T05:18:54.580Z,36.90
2019-01-09T05:20:58.733Z,33.37
2019-01-09T05:23:03.343Z,31.00
2019-01-09T05:25:11.393Z,31.53
2019-01-09T05:27:15.704Z,31.60
2019-01-09T05:29:19.819Z,30.10
2019-01-09T05:31:28.937Z,29.70
2019-01-09T05:33:33.408Z,28.60
2019-01-09T05:35:38.839Z,29.63
2019-01-09T05:37:44.383Z,25.87
2019-01-09T05:39:50.817Z,27.63
2019-01-09T05:41:57.785Z,25.63
2019-01-09T05:44:02.036Z,25.50
2019-01-09T05:46:06.155Z,25.67
2019-01-09T05:48:10.271Z,22.97
2019-01-09T05:50:14.872Z,24.33
2019-01-09T05:52:19.034Z,21.47
2019-01-09T05:54:23.213Z,24.00
2019-01-09T05:56:27.781Z,25.17
2019-01-09T05:58:32.424Z,22.20
2019-01-09T06:00:39.219Z,22.37
2019-01-09T06:05:10.537Z,21.93
2019-01-09T06:07:18.651Z,17.90
2019-01-09T06:09:20.857Z,19.17
2019-01-09T06:11:24.983Z,21.20
2019-01-09T06:13:30.324Z,17.27
2019-01-09T06:15:34.927Z,18.33
2019-01-09T06:17:39.284Z,17.70
2019-01-09T06:19:44.167Z,17.60
2019-01-09T06:21:51.276Z,17.23
2019-01-09T06:23:57.770Z,17.27
2019-01-09T06:26:04.246Z,14.77
2019-01-09T06:28:08.382Z,17.53
2019-01-09T06:30:13.198Z,222.00
2019-01-09T06:32:17.923Z,361.37
2019-01-09T06:34:22.408Z,390.77
2019-01-09T06:36:26.669Z,434.17
2019-01-09T06:38:30.890Z,334.73
2019-01-09T06:40:35.107Z,336.50
2019-01-09T06:42:39.928Z,287.70
2019-01-09T06:44:43.991Z,136.17
2019-01-09T06:46:49.187Z,67.20
2019-01-09T06:48:57.519Z,89.00
2019-01-09T06:51:07.877Z,116.17
2019-01-09T06:53:12.534Z,349.27
2019-01-09T06:55:16.736Z,490.27
2019-01-09T06:57:20.793Z,593.10
2019-01-09T06:59:24.899Z,776.60
2019-01-09T07:01:29.261Z,1393.73
2019-01-09T07:03:33.622Z,1578.67
2019-01-09T07:05:37.861Z,1999.90
2019-01-09T07:07:42.330Z,1380.73
2019-01-09T07:09:46.542Z,1120.47
2019-01-09T07:11:51.319Z,970.43
2019-01-09T07:13:56.242Z,850.73
2019-01-09T07:16:00.626Z,729.03
2019-01-09T07:18:06.543Z,602.87
2019-01-09T07:20:11.202Z,499.70
2019-01-09T07:22:15.344Z,455.97
2019-01-09T07:24:19.459Z,397.57
2019-01-09T07:26:23.601Z,395.67
2019-01-09T07:28:33.288Z,355.00
2019-01-09T07:30:43.699Z,335.07
2019-01-09T07:32:48.540Z,321.73
2019-01-09T07:34:52.818Z,317.93
2019-01-09T07:36:57.003Z,417.63
2019-01-09T07:39:04.638Z,578.17
2019-01-09T07:41:08.872Z,884.63
2019-01-09T07:43:13.120Z,594.87
2019-01-09T07:45:17.401Z,570.77
2019-01-09T07:47:21.606Z,556.47
2019-01-09T07:49:27.176Z,544.37
2019-01-09T07:51:32.424Z,532.23
2019-01-09T07:53:39.176Z,519.80
2019-01-09T07:55:50.053Z,1177.20
2019-01-09T07:57:54.797Z,523.70
2019-01-09T07:59:58.858Z,752.50
2019-01-09T08:02:03.391Z,674.17
2019-01-09T08:04:07.641Z,652.87
2019-01-09T08:06:11.830Z,826.07
2019-01-09T08:08:17.276Z,494.43
2019-01-09T08:10:21.452Z,587.80
2019-01-09T08:12:25.656Z,779.47
2019-01-09T08:14:30.041Z,889.63
2019-01-09T08:16:35.509Z,958.10
2019-01-09T08:18:43.292Z,671.27
2019-01-09T08:20:53.109Z,541.33
2019-01-09T08:22:57.478Z,470.33
2019-01-09T08:25:01.928Z,496.07
2019-01-09T08:27:06.603Z,575.67
2019-01-09T08:29:10.777Z,642.40
2019-01-09T08:31:15.449Z,489.77
2019-01-09T08:33:19.533Z,603.73
2019-01-09T08:35:23.660Z,675.87
2019-01-09T08:37:28.177Z,516.27
2019-01-09T08:39:33.356Z,363.93
2019-01-09T08:41:38.232Z,1222.53
2019-01-09T08:43:43.713Z,577.77
2019-01-09T08:45:49.605Z,880.03
2019-01-09T08:48:01.607Z,487.23
2019-01-09T08:50:07.224Z,1021.57
2019-01-09T08:52:11.472Z,836.10
2019-01-09T08:54:15.700Z,704.63
2019-01-09T08:56:20.050Z,513.73
2019-01-09T08:58:24.174Z,890.40
2019-01-09T09:00:28.582Z,478.30
2019-01-09T09:02:32.883Z,367.40
2019-01-09T09:04:40.581Z,617.80
2019-01-09T09:06:47.806Z,694.37
2019-01-09T09:08:53.624Z,1273.33
2019-01-09T09:11:01.275Z,687.10
2019-01-09T09:13:05.860Z,628.70
2019-01-09T09:15:12.456Z,553.43
2019-01-09T09:17:17.290Z,533.67
2019-01-09T09:19:22.011Z,604.87
2019-01-09T09:21:26.557Z,791.83
2019-01-09T09:23:30.843Z,794.13
2019-01-09T09:25:35.012Z,926.27
2019-01-09T09:27:39.178Z,872.33
2019-01-09T09:29:43.452Z,549.33
2019-01-09T09:31:50.696Z,482.47
2019-01-09T09:33:55.686Z,460.23
2019-01-09T09:36:06.083Z,742.50
2019-01-09T09:38:20.220Z,849.17
2019-01-09T09:40:19.190Z,1155.20
2019-01-09T09:42:23.591Z,679.10
2019-01-09T09:44:28.400Z,656.67
2019-01-09T09:46:32.646Z,752.77
2019-01-09T09:48:36.854Z,632.87
2019-01-09T09:50:41.144Z,610.40
2019-01-09T09:52:45.330Z,599.70
2019-01-09T09:54:49.854Z,572.70
2019-01-09T09:56:57.442Z,560.13
2019-01-09T09:59:05.306Z,935.83
2019-01-09T10:01:15.395Z,566.73
2019-01-09T10:03:19.496Z,530.27
2019-01-09T10:05:23.623Z,690.30
2019-01-09T10:07:27.795Z,521.43
2019-01-09T10:09:32.249Z,512.60
2019-01-09T10:11:36.411Z,633.70
2019-01-09T10:13:40.568Z,768.30
2019-01-09T10:15:45.215Z,528.53
2019-01-09T10:17:49.413Z,625.13
2019-01-09T10:19:56.544Z,1170.03
2019-01-09T10:22:00.684Z,747.47
2019-01-09T10:24:05.064Z,644.73
2019-01-09T10:26:09.257Z,632.97
2019-01-09T10:28:13.651Z,622.07
2019-01-09T10:30:18.559Z,627.93
2019-01-09T10:32:22.839Z,606.13
2019-01-09T10:34:27.732Z,593.47
2019-01-09T10:36:35.101Z,585.10
2019-01-09T10:38:44.603Z,565.03
2019-01-09T10:40:48.847Z,546.30
2019-01-09T10:42:53.161Z,577.40
2019-01-09T10:44:57.280Z,985.50
2019-01-09T10:47:01.383Z,889.13
2019-01-09T10:49:05.652Z,576.23
2019-01-09T10:51:10.231Z,519.40
2019-01-09T10:53:14.368Z,487.57
2019-01-09T10:55:18.601Z,477.40
2019-01-09T10:57:23.154Z,472.53
2019-01-09T10:59:27.305Z,452.27
2019-01-09T11:01:31.724Z,439.27
2019-01-09T11:03:38.743Z,800.50
2019-01-09T11:05:46.776Z,726.87
2019-01-09T11:07:50.773Z,541.47
2019-01-09T11:09:54.901Z,448.60
2019-01-09T11:11:59.039Z,417.47
2019-01-09T11:14:03.831Z,395.50
2019-01-09T11:16:08.354Z,371.00
2019-01-09T11:18:12.823Z,342.00
2019-01-09T11:20:18.742Z,329.80
2019-01-09T11:22:23.112Z,313.63
2019-01-09T11:24:28.001Z,303.70
2019-01-09T11:26:32.367Z,599.73
2019-01-09T11:28:37.066Z,856.40
2019-01-09T11:30:42.073Z,773.13
2019-01-09T11:32:47.709Z,851.97
2019-01-09T11:34:55.678Z,748.00
2019-01-09T11:37:02.996Z,807.67
2019-01-09T11:39:10.423Z,1354.20
2019-01-09T11:41:14.517Z,676.37
2019-01-09T11:43:18.646Z,514.70
2019-01-09T11:45:22.783Z,423.30
2019-01-09T11:47:27.215Z,789.00
2019-01-09T11:49:31.415Z,694.93
2019-01-09T11:51:35.929Z,1136.87
2019-01-09T11:53:40.500Z,1130.00
2019-01-09T11:55:48.072Z,1291.40
2019-01-09T11:57:55.558Z,1140.93
2019-01-09T12:00:02.035Z,1352.40
2019-01-09T12:02:06.546Z,1395.43
2019-01-09T12:04:11.866Z,957.80
2019-01-09T12:06:16.154Z,803.47
2019-01-09T12:08:20.329Z,966.47
2019-01-09T12:10:30.157Z,646.93
2019-01-09T12:12:31.088Z,531.57
2019-01-09T12:14:36.879Z,471.40
2019-01-09T12:16:41.360Z,845.93
2019-01-09T12:18:46.724Z,749.77
2019-01-09T12:20:54.498Z,731.80
2019-01-09T12:23:09.759Z,497.17
2019-01-09T12:25:17.317Z,425.37
2019-01-09T12:27:23.430Z,403.80
2019-01-09T12:29:28.492Z,1027.70
2019-01-09T12:31:35.822Z,497.43
2019-01-09T12:33:40.917Z,394.93
2019-01-09T12:35:45.570Z,327.00
2019-01-09T12:37:51.840Z,514.43
2019-01-09T12:40:00.524Z,746.60
2019-01-09T12:42:13.448Z,379.17
2019-01-09T12:44:17.936Z,313.70
2019-01-09T12:46:22.286Z,517.00
2019-01-09T12:48:26.979Z,622.37
2019-01-09T12:50:31.301Z,692.30
2019-01-09T12:52:35.423Z,575.30
2019-01-09T12:54:41.595Z,549.93
2019-01-09T12:56:46.131Z,527.37
2019-01-09T12:58:55.000Z,525.17
2019-01-09T13:01:02.202Z,509.00
2019-01-09T13:03:12.563Z,484.67
2019-01-09T13:05:17.428Z,460.13
2019-01-09T13:07:21.704Z,462.80
2019-01-09T13:09:27.964Z,463.27
2019-01-09T13:11:35.225Z,455.47
2019-01-09T13:13:44.173Z,725.70
2019-01-09T13:15:51.270Z,610.93
2019-01-09T13:17:56.337Z,626.70
2019-01-09T13:20:13.956Z,619.57
2019-01-09T13:22:18.223Z,623.53
2019-01-09T13:24:23.462Z,613.57
2019-01-09T13:26:29.688Z,846.33
2019-01-09T13:28:41.363Z,610.20
2019-01-09T13:30:50.231Z,590.57
2019-01-09T13:32:54.868Z,572.47
2019-01-09T13:35:04.318Z,558.13
2019-01-09T13:37:09.197Z,551.03
2019-01-09T13:39:13.876Z,543.80
2019-01-09T13:41:20.260Z,522.37
2019-01-09T13:43:28.331Z,505.70
2019-01-09T13:45:40.021Z,498.30
2019-01-09T13:47:50.000Z,488.50
2019-01-09T13:49:58.256Z,620.83
2019-01-09T13:52:05.889Z,826.27
2019-01-09T13:54:13.777Z,792.13
2019-01-09T13:56:24.228Z,1141.10
2019-01-09T13:58:30.697Z,1076.13
2019-01-09T14:00:36.248Z,1464.27
2019-01-09T14:02:52.760Z,1050.47
2019-01-09T14:04:57.022Z,1482.77
2019-01-09T14:07:01.327Z,977.07
2019-01-09T14:09:12.453Z,773.30
2019-01-09T14:11:16.998Z,856.63
2019-01-09T14:13:21.235Z,837.07
2019-01-09T14:15:26.091Z,711.67
2019-01-09T14:17:31.727Z,623.43
2019-01-09T14:19:41.193Z,579.13
2019-01-09T14:21:48.604Z,546.10
2019-01-09T14:23:57.825Z,656.30
2019-01-09T14:26:02.372Z,818.37
2019-01-09T14:28:07.646Z,525.37
2019-01-09T14:30:24.034Z,492.47
2019-01-09T14:32:28.395Z,1031.33
2019-01-09T14:34:38.104Z,889.43
2019-01-09T14:36:46.042Z,693.77
2019-01-09T14:38:52.243Z,500.97
2019-01-09T14:41:00.978Z,468.87
2019-01-09T14:43:05.774Z,435.40
2019-01-09T14:45:10.777Z,690.07
2019-01-09T14:47:16.080Z,471.03
2019-01-09T14:49:21.531Z,429.83
2019-01-09T14:51:45.227Z,413.20
2019-01-09T14:53:52.389Z,366.87
2019-01-09T14:56:02.876Z,342.07
2019-01-09T14:58:07.280Z,328.53
2019-01-09T15:00:18.328Z,447.20
2019-01-09T15:02:27.400Z,873.13
2019-01-09T15:04:32.108Z,1170.43
2019-01-09T15:06:49.762Z,1200.73
2019-01-09T15:09:00.797Z,853.27
2019-01-09T15:11:08.187Z,635.03
2019-01-09T15:13:18.700Z,512.07
2019-01-09T15:15:26.444Z,409.60
2019-01-09T15:17:31.471Z,344.80
2019-01-09T15:19:37.230Z,290.23
2019-01-09T15:21:49.020Z,258.70
2019-01-09T15:24:08.076Z,238.03
2019-01-09T15:26:05.996Z,211.90
2019-01-09T15:28:11.482Z,207.87
2019-01-09T15:30:29.126Z,193.80
2019-01-09T15:32:34.063Z,325.40
2019-01-09T15:34:43.335Z,209.00
2019-01-09T15:36:54.996Z,190.80
2019-01-09T15:39:02.199Z,174.10
2019-01-09T15:41:16.263Z,166.47
2019-01-09T15:43:22.756Z,164.83
2019-01-09T15:45:27.754Z,154.17
2019-01-09T15:47:35.700Z,152.53
2019-01-09T15:49:40.383Z,531.43
2019-01-09T15:51:46.598Z,892.47
2019-01-09T15:53:51.543Z,561.10
2019-01-09T15:55:59.050Z,240.87
2019-01-09T15:58:11.839Z,814.33
2019-01-09T16:00:28.647Z,982.43
2019-01-09T16:02:33.563Z,704.60
2019-01-09T16:04:39.709Z,1572.40
2019-01-09T16:06:44.724Z,810.27
2019-01-09T16:08:51.574Z,514.33
2019-01-09T16:11:01.787Z,331.40
2019-01-09T16:13:17.243Z,206.33
2019-01-09T16:15:25.404Z,316.03
2019-01-09T16:17:33.586Z,743.53
2019-01-09T16:19:39.852Z,615.47
2019-01-09T16:21:44.654Z,678.67
2019-01-09T16:23:52.945Z,832.50
2019-01-09T16:25:57.743Z,1085.43
2019-01-09T16:28:10.289Z,918.00
2019-01-09T16:30:58.681Z,1453.67
2019-01-09T16:33:04.650Z,1634.27
2019-01-09T16:35:08.915Z,1247.23
2019-01-09T16:37:14.035Z,1728.50
2019-01-09T16:39:21.527Z,1552.50
2019-01-09T16:41:25.850Z,1196.37
2019-01-09T16:43:32.492Z,894.47
2019-01-09T16:45:43.177Z,1025.07
2019-01-09T16:47:51.377Z,888.17
2019-01-09T16:49:58.134Z,618.97
2019-01-09T16:52:06.339Z,552.93
2019-01-09T16:54:11.463Z,687.70
2019-01-09T16:56:16.296Z,779.83
2019-01-09T16:58:21.627Z,663.43
2019-01-09T17:00:34.971Z,218.00
2019-01-09T17:02:51.155Z,112.87
2019-01-09T17:04:56.634Z,71.60
2019-01-09T17:07:01.417Z,61.83
2019-01-09T17:09:09.349Z,56.67
2019-01-09T17:11:20.180Z,53.83
2019-01-09T17:13:27.434Z,48.07
2019-01-09T17:15:32.370Z,53.63
2019-01-09T17:17:38.674Z,50.33
2019-01-09T17:19:45.222Z,43.93
2019-01-09T17:21:56.577Z,45.53
2019-01-09T17:23:58.694Z,44.47
2019-01-09T17:26:04.618Z,41.27
2019-01-09T17:28:09.867Z,39.40
2019-01-09T17:30:21.285Z,41.13
2019-01-09T17:32:30.129Z,37.93
2019-01-09T17:34:39.225Z,40.60
2019-01-09T17:36:50.226Z,35.60
2019-01-09T17:39:01.945Z,36.87
2019-01-09T17:41:12.674Z,33.70
2019-01-09T17:43:19.829Z,33.53
2019-01-09T17:45:34.493Z,32.93
2019-01-09T17:47:43.432Z,34.00
2019-01-09T17:49:52.399Z,31.40
2019-01-09T17:52:01.378Z,34.10
2019-01-09T17:54:08.445Z,30.67
2019-01-09T17:56:13.018Z,29.40
2019-01-09T17:58:18.608Z,32.20
2019-01-09T18:00:26.860Z,31.33
2019-01-09T18:02:31.420Z,32.47
2019-01-09T18:04:36.744Z,29.53
2019-01-09T18:06:41.425Z,29.90
2019-01-09T18:08:48.214Z,29.83
2019-01-09T18:10:55.654Z,28.33
2019-01-09T18:13:08.391Z,28.53
2019-01-09T18:15:15.539Z,26.50
2019-01-09T18:17:23.456Z,28.30
2019-01-09T18:19:28.296Z,27.30
2019-01-09T18:21:32.937Z,24.20
2019-01-09T18:23:37.563Z,24.33
2019-01-09T18:25:42.275Z,29.17
2019-01-09T18:27:48.892Z,27.40
2019-01-09T18:29:56.163Z,24.50
2019-01-09T18:32:38.829Z,21.73
2019-01-09T18:35:02.415Z,24.50
2019-01-09T18:37:57.341Z,25.43
2019-01-09T18:41:04.499Z,23.27
2019-01-09T18:43:38.323Z,23.67
2019-01-09T18:46:13.670Z,23.30
2019-01-09T18:48:55.660Z,21.70
2019-01-09T18:51:39.869Z,19.87
2019-01-09T18:53:55.442Z,22.23
2019-01-09T18:56:04.828Z,22.30
2019-01-09T18:58:14.757Z,21.77
2019-01-09T19:00:23.147Z,20.33
2019-01-09T19:02:28.466Z,19.57
2019-01-09T19:04:33.223Z,19.00
2019-01-09T19:06:40.015Z,18.87
2019-01-09T19:08:44.740Z,16.67
2019-01-09T19:10:49.598Z,19.10
2019-01-09T19:12:57.456Z,16.97
2019-01-09T19:15:13.895Z,16.10
2019-01-09T19:17:19.050Z,18.17
2019-01-09T19:19:23.542Z,15.97
2019-01-09T19:21:28.480Z,16.27
2019-01-09T19:23:33.938Z,16.80
2019-01-09T19:25:39.082Z,17.13
2019-01-09T19:27:45.234Z,14.93
2019-01-09T19:29:49.745Z,15.27
2019-01-09T19:31:54.093Z,15.30
2019-01-09T19:33:58.540Z,14.97
2019-01-09T19:36:04.330Z,14.73
2019-01-09T19:38:10.027Z,14.57
2019-01-09T19:40:15.644Z,14.80
2019-01-09T19:42:19.871Z,14.10
2019-01-09T19:44:24.251Z,13.60
2019-01-09T19:46:28.741Z,14.70
2019-01-09T19:48:38.134Z,15.27
2019-01-09T19:50:54.539Z,13.73
2019-01-09T19:52:59.022Z,13.20
2019-01-09T19:55:05.096Z,14.47
2019-01-09T19:57:09.933Z,14.10
2019-01-09T19:59:18.317Z,12.07
2019-01-09T20:01:23.158Z,12.70
2019-01-09T20:03:28.019Z,12.63
2019-01-09T20:05:35.743Z,14.40
2019-01-09T20:07:43.035Z,12.40
2019-01-09T20:09:48.814Z,12.60
2019-01-09T20:11:57.469Z,11.43
2019-01-09T20:14:03.009Z,11.87
2019-01-09T20:16:07.409Z,11.80
2019-01-09T20:18:11.913Z,11.20
2019-01-09T20:20:17.383Z,11.13
2019-01-09T20:22:22.158Z,12.13
2019-01-09T20:24:26.601Z,11.30
2019-01-09T20:26:32.117Z,11.60
2019-01-09T20:28:36.817Z,10.97
2019-01-09T20:30:42.360Z,12.50
2019-01-09T20:32:49.702Z,11.00
2019-01-09T20:34:58.380Z,11.10
2019-01-09T20:37:00.986Z,11.17
2019-01-09T20:39:08.725Z,11.20
2019-01-09T20:41:13.856Z,11.00
2019-01-09T20:43:18.432Z,10.63
2019-01-09T20:45:22.896Z,10.90
2019-01-09T20:47:27.111Z,9.83
2019-01-09T20:49:31.409Z,10.60
2019-01-09T20:51:35.935Z,9.93
2019-01-09T20:53:40.575Z,10.37
2019-01-09T20:55:47.995Z,9.93
2019-01-09T20:57:55.325Z,8.87
2019-01-09T21:00:04.205Z,9.10
2019-01-09T21:02:10.826Z,9.00
2019-01-09T21:04:15.390Z,8.43
2019-01-09T21:06:19.777Z,8.60
2019-01-09T21:08:24.471Z,7.00
2019-01-09T21:10:28.984Z,8.87
2019-01-09T21:12:35.411Z,8.43
2019-01-09T21:14:40.562Z,6.70
2019-01-09T21:16:45.126Z,7.00
2019-01-09T21:18:53.105Z,7.17
2019-01-09T21:21:03.635Z,6.53
2019-01-09T21:23:07.845Z,8.00
2019-01-09T21:25:12.864Z,7.07
2019-01-09T21:27:17.898Z,6.57
2019-01-09T21:29:22.023Z,6.80
2019-01-09T21:31:26.195Z,7.00
2019-01-09T21:33:30.752Z,6.90
2019-01-09T21:35:36.270Z,6.50
2019-01-09T21:37:40.753Z,6.90
2019-01-09T21:39:45.704Z,6.40
2019-01-09T21:41:53.407Z,6.20
2019-01-09T21:44:16.130Z,6.40
2019-01-09T21:46:20.831Z,6.33
2019-01-09T21:48:25.588Z,5.67
2019-01-09T21:50:33.074Z,5.97
2019-01-09T21:52:38.477Z,5.40
2019-01-09T21:54:43.161Z,6.30
2019-01-09T21:56:47.633Z,4.83
2019-01-09T21:58:52.783Z,5.20
2019-01-09T22:01:00.310Z,5.27
2019-01-09T22:03:15.266Z,6.10
2019-01-09T22:05:21.604Z,5.33
2019-01-09T22:07:25.896Z,4.37
2019-01-09T22:09:30.783Z,126.80
2019-01-09T22:11:34.909Z,504.37
2019-01-09T22:13:39.287Z,483.70
2019-01-09T22:15:51.575Z,619.77
2019-01-09T22:17:56.821Z,643.63
2019-01-09T22:20:03.649Z,826.33
2019-01-09T22:22:17.593Z,1058.60
2019-01-09T22:24:21.919Z,618.17
2019-01-09T22:26:26.263Z,283.10
2019-01-09T22:28:30.400Z,92.63
2019-01-09T22:30:34.637Z,21.70
2019-01-09T22:32:38.754Z,5.77
2019-01-09T22:34:43.220Z,4.27
2019-01-09T22:36:49.266Z,4.37
2019-01-09T22:38:53.471Z,3.70
2019-01-09T22:41:01.318Z,3.63
2019-01-09T22:43:08.600Z,3.40
2019-01-09T22:45:16.848Z,3.27
2019-01-09T22:47:22.482Z,2.80
2019-01-09T22:49:27.629Z,4.37
2019-01-09T22:51:33.307Z,2.50
2019-01-09T22:53:43.213Z,2.63
2019-01-09T22:55:53.472Z,3.10
2019-01-09T22:57:57.861Z,93.53
2019-01-09T23:00:03.411Z,536.97
2019-01-09T23:02:08.031Z,747.47
2019-01-09T23:04:16.539Z,610.23
2019-01-09T23:06:21.799Z,552.33
2019-01-09T23:08:26.162Z,238.30
2019-01-09T23:10:33.921Z,54.57
2019-01-09T23:12:40.556Z,11.53
2019-01-09T23:14:50.893Z,3.13
2019-01-09T23:16:57.375Z,691.83
2019-01-09T23:19:07.238Z,394.07
2019-01-09T23:21:12.175Z,29.33
2019-01-09T23:23:17.669Z,568.47
2019-01-09T23:25:24.555Z,629.37
2019-01-09T23:27:31.207Z,69.70
2019-01-09T23:29:36.894Z,11.87
2019-01-09T23:31:43.650Z,1125.10
2019-01-09T23:33:54.625Z,1034.90
2019-01-09T23:36:02.772Z,315.33
2019-01-09T23:38:06.988Z,49.37
2019-01-09T23:40:13.363Z,731.27
2019-01-09T23:42:17.614Z,112.30
2019-01-09T23:44:29.247Z,658.63
2019-01-09T23:46:34.757Z,750.23
2019-01-09T23:48:39.534Z,284.80
2019-01-09T23:50:44.795Z,59.43
2019-01-09T23:52:54.941Z,13.97
2019-01-09T23:55:08.241Z,3.73
2019-01-09T23:57:12.586Z,3.13
2019-01-09T23:59:17.087Z,1.93
